createdAt,value
2023-03-27T00:02:08.896Z,98348.63
2023-03-27T00:04:35.907Z,98344.00
2023-03-27T00:07:03.489Z,98350.28
2023-03-27T00:09:32.401Z,98347.44
2023-03-27T00:12:00.869Z,98336.19
2023-03-27T00:14:28.686Z,98339.59
2023-03-27T00:16:55.500Z,98338.00
2023-03-27T00:19:22.660Z,98341.47
2023-03-27T00:21:49.989Z,98339.16
2023-03-27T00:24:17.320Z,98328.19
2023-03-27T00:26:44.488Z,98324.78
2023-03-27T00:29:13.541Z,98326.81
2023-03-27T00:31:40.411Z,98329.84
2023-03-27T00:34:07.203Z,98329.91
2023-03-27T00:36:33.933Z,98325.81
2023-03-27T00:39:01.130Z,98318.09
2023-03-27T00:41:28.073Z,98317.56
2023-03-27T00:43:56.400Z,98323.28
2023-03-27T00:46:31.897Z,98318.09
2023-03-27T00:49:02.044Z,98317.84
2023-03-27T00:51:29.356Z,98327.94
2023-03-27T00:53:56.678Z,98327.47
2023-03-27T00:56:24.801Z,98325.09
2023-03-27T00:58:59.863Z,98324.84
2023-03-27T01:01:29.559Z,98318.13
2023-03-27T01:04:00.429Z,98316.31
2023-03-27T01:06:28.631Z,98309.81
2023-03-27T01:08:55.886Z,98311.88
2023-03-27T01:11:52.419Z,98315.41
2023-03-27T01:14:28.084Z,98309.09
2023-03-27T01:17:33.299Z,98310.09
2023-03-27T01:20:32.492Z,98294.78
2023-03-27T01:23:09.006Z,98308.28
2023-03-27T01:26:00.260Z,98302.22
2023-03-27T01:28:46.634Z,98306.63
2023-03-27T01:31:19.847Z,98304.88
2023-03-27T01:34:14.189Z,98301.69
2023-03-27T01:37:13.741Z,98306.31
2023-03-27T01:40:09.951Z,98300.28
2023-03-27T01:42:48.033Z,98299.38
2023-03-27T01:45:29.071Z,98304.34
2023-03-27T01:48:11.411Z,98292.94
2023-03-27T01:51:01.214Z,98283.38
2023-03-27T01:53:33.882Z,98286.34
2023-03-27T01:56:18.441Z,98290.47
2023-03-27T01:58:51.400Z,98288.97
2023-03-27T02:01:28.844Z,98289.25
2023-03-27T02:04:00.272Z,98286.66
2023-03-27T02:06:39.044Z,98290.75
2023-03-27T02:09:22.981Z,98284.78
2023-03-27T02:11:58.554Z,98272.91
2023-03-27T02:14:30.792Z,98269.88
2023-03-27T02:17:02.796Z,98257.19
2023-03-27T02:19:35.634Z,98255.34
2023-03-27T02:22:03.584Z,98248.88
2023-03-27T02:24:43.700Z,98248.97
2023-03-27T02:27:19.622Z,98250.91
2023-03-27T02:30:22.593Z,98242.94
2023-03-27T02:33:09.057Z,98245.97
2023-03-27T02:35:59.397Z,98237.63
2023-03-27T02:39:02.239Z,98241.97
2023-03-27T02:41:37.243Z,98229.44
2023-03-27T02:44:47.606Z,98232.00
2023-03-27T02:47:36.221Z,98223.50
2023-03-27T02:50:16.466Z,98229.50
2023-03-27T02:52:51.223Z,98219.38
2023-03-27T02:55:25.110Z,98227.47
2023-03-27T02:58:00.293Z,98229.03
2023-03-27T03:00:43.900Z,98245.69
2023-03-27T03:04:08.869Z,98226.81
2023-03-27T03:07:06.846Z,98220.56
2023-03-27T03:09:41.199Z,98228.09
2023-03-27T03:12:09.321Z,98214.44
2023-03-27T03:14:44.745Z,98218.91
2023-03-27T03:17:12.900Z,98218.84
2023-03-27T03:19:39.691Z,98208.47
2023-03-27T03:22:06.913Z,98216.09
2023-03-27T03:24:42.187Z,98210.41
2023-03-27T03:27:12.831Z,98214.91
2023-03-27T03:29:48.585Z,98215.19
2023-03-27T03:32:18.853Z,98207.69
2023-03-27T03:34:46.792Z,98208.16
2023-03-27T03:37:15.368Z,98219.63
2023-03-27T03:39:42.264Z,98224.91
2023-03-27T03:42:09.606Z,98236.81
2023-03-27T03:44:51.306Z,98239.16
2023-03-27T03:47:20.555Z,98240.59
2023-03-27T03:49:47.516Z,98242.13
2023-03-27T03:52:15.025Z,98242.06
2023-03-27T03:54:43.491Z,98237.47
2023-03-27T03:57:11.226Z,98243.16
2023-03-27T03:59:39.398Z,98248.97
2023-03-27T04:02:28.630Z,98247.66
2023-03-27T04:05:10.503Z,98247.47
2023-03-27T04:07:41.143Z,98253.84
2023-03-27T04:10:23.056Z,98259.03
2023-03-27T04:12:51.380Z,98249.41
2023-03-27T04:15:28.164Z,98252.06
2023-03-27T04:18:15.075Z,98252.66
2023-03-27T04:20:42.602Z,98251.00
2023-03-27T04:23:12.445Z,98245.09
2023-03-27T04:25:40.428Z,98252.91
2023-03-27T04:28:10.374Z,98250.13
2023-03-27T04:30:44.460Z,98259.81
2023-03-27T04:33:18.536Z,98250.34
2023-03-27T04:36:09.073Z,98259.13
2023-03-27T04:38:45.748Z,98261.63
2023-03-27T04:41:14.913Z,98273.19
2023-03-27T04:43:42.100Z,98280.38
2023-03-27T04:46:09.433Z,98275.31
2023-03-27T04:48:39.129Z,98276.78
2023-03-27T04:51:26.732Z,98280.16
2023-03-27T04:53:56.511Z,98274.66
2023-03-27T04:56:25.001Z,98285.47
2023-03-27T04:58:54.534Z,98283.75
2023-03-27T05:01:22.988Z,98285.75
2023-03-27T05:04:08.774Z,98282.06
2023-03-27T05:06:47.507Z,98287.22
2023-03-27T05:09:17.106Z,98301.41
2023-03-27T05:11:44.851Z,98308.63
2023-03-27T05:14:11.737Z,98314.88
2023-03-27T05:16:41.277Z,98312.28
2023-03-27T05:19:09.579Z,98321.41
2023-03-27T05:21:41.172Z,98315.44
2023-03-27T05:24:11.193Z,98323.53
2023-03-27T05:26:39.268Z,98332.41
2023-03-27T05:29:06.276Z,98330.50
2023-03-27T05:31:37.179Z,98332.94
2023-03-27T05:34:22.997Z,98337.97
2023-03-27T05:36:56.334Z,98331.91
2023-03-27T05:39:25.758Z,98335.06
2023-03-27T05:41:52.565Z,98340.03
2023-03-27T05:44:23.670Z,98327.16
2023-03-27T05:46:51.049Z,98341.34
2023-03-27T05:49:26.051Z,98343.78
2023-03-27T05:51:58.716Z,98348.81
2023-03-27T05:54:25.673Z,98333.16
2023-03-27T05:57:07.980Z,98352.16
2023-03-27T05:59:34.884Z,98348.91
2023-03-27T06:02:21.101Z,98341.22
2023-03-27T06:04:54.809Z,98347.38
2023-03-27T06:07:30.362Z,98337.88
2023-03-27T06:10:03.093Z,98347.44
2023-03-27T06:12:32.609Z,98338.41
2023-03-27T06:15:11.103Z,98336.75
2023-03-27T06:17:47.557Z,98353.72
2023-03-27T06:20:15.544Z,98356.88
2023-03-27T06:22:56.631Z,98350.78
2023-03-27T06:25:32.317Z,98364.66
2023-03-27T06:28:00.731Z,98365.09
2023-03-27T06:30:30.387Z,98360.59
2023-03-27T06:33:16.882Z,98353.25
2023-03-27T06:35:53.219Z,98365.84
2023-03-27T06:38:31.293Z,98366.94
2023-03-27T06:40:59.798Z,98365.03
2023-03-27T06:43:41.717Z,98370.66
2023-03-27T06:46:14.951Z,98365.88
2023-03-27T06:49:12.300Z,98383.03
2023-03-27T06:51:39.491Z,98383.03
2023-03-27T06:54:06.553Z,98387.66
2023-03-27T06:56:35.944Z,98389.09
2023-03-27T06:59:21.007Z,98399.59
2023-03-27T07:01:52.579Z,98399.16
2023-03-27T07:04:51.121Z,98397.84
2023-03-27T07:07:32.984Z,98400.16
2023-03-27T07:09:59.790Z,98404.56
2023-03-27T07:12:27.098Z,98400.16
2023-03-27T07:14:55.913Z,98411.22
2023-03-27T07:17:31.997Z,98419.75
2023-03-27T07:20:10.459Z,98424.59
2023-03-27T07:22:37.711Z,98423.31
2023-03-27T07:25:09.288Z,98427.75
2023-03-27T07:27:41.849Z,98426.19
2023-03-27T07:30:12.245Z,98433.97
2023-03-27T07:32:43.032Z,98430.72
2023-03-27T07:35:11.038Z,98438.81
2023-03-27T07:37:56.518Z,98442.78
2023-03-27T07:40:42.704Z,98453.78
2023-03-27T07:43:29.767Z,98455.69
2023-03-27T07:45:58.156Z,98449.78
2023-03-27T07:48:27.921Z,98460.31
2023-03-27T07:51:13.508Z,98461.88
2023-03-27T07:53:41.828Z,98464.25
2023-03-27T07:56:23.604Z,98470.00
2023-03-27T07:59:07.891Z,98466.84
2023-03-27T08:01:35.191Z,98470.56
2023-03-27T08:04:03.901Z,98468.06
2023-03-27T08:06:33.323Z,98475.66
2023-03-27T08:09:02.849Z,98483.97
2023-03-27T08:11:32.672Z,98477.06
2023-03-27T08:13:59.855Z,98485.06
2023-03-27T08:16:31.638Z,98481.59
2023-03-27T08:19:02.184Z,98476.97
2023-03-27T08:21:32.023Z,98474.94
2023-03-27T08:24:00.630Z,98476.97
2023-03-27T08:26:33.368Z,98478.53
2023-03-27T08:29:04.329Z,98477.84
2023-03-27T08:31:33.215Z,98476.94
2023-03-27T08:34:02.097Z,98474.47
2023-03-27T08:36:39.849Z,98481.50
2023-03-27T08:39:08.361Z,98483.75
2023-03-27T08:41:55.864Z,98481.44
2023-03-27T08:44:43.366Z,98481.78
2023-03-27T08:47:19.527Z,98481.59
2023-03-27T08:49:58.821Z,98491.19
2023-03-27T08:52:33.127Z,98478.72
2023-03-27T08:55:34.526Z,98478.94
2023-03-27T08:58:21.645Z,98487.16
2023-03-27T09:01:05.535Z,98480.44
2023-03-27T09:03:36.981Z,98485.22
2023-03-27T09:06:09.098Z,98483.56
2023-03-27T09:08:46.804Z,98483.25
2023-03-27T09:11:28.827Z,98486.31
2023-03-27T09:14:04.952Z,98484.47
2023-03-27T09:16:37.916Z,98486.34
2023-03-27T09:19:28.344Z,98482.97
2023-03-27T09:22:17.505Z,98497.09
2023-03-27T09:25:07.783Z,98487.34
2023-03-27T09:27:37.771Z,98496.91
2023-03-27T09:30:36.616Z,98511.63
2023-03-27T09:33:11.901Z,98509.97
2023-03-27T09:35:42.322Z,98520.75
2023-03-27T09:38:42.519Z,98507.03
2023-03-27T09:41:20.018Z,98513.22
2023-03-27T09:44:03.696Z,98520.34
2023-03-27T09:46:36.812Z,98528.59
2023-03-27T09:49:12.755Z,98521.47
2023-03-27T09:51:45.786Z,98536.44
2023-03-27T09:54:29.872Z,98537.44
2023-03-27T09:57:11.304Z,98552.50
2023-03-27T09:59:57.007Z,98550.91
2023-03-27T10:02:32.997Z,98575.59
2023-03-27T10:05:12.177Z,98555.94
2023-03-27T10:07:41.830Z,98554.81
2023-03-27T10:10:17.514Z,98583.69
2023-03-27T10:13:06.287Z,98612.00
2023-03-27T10:15:43.880Z,98608.88
2023-03-27T10:18:29.916Z,98623.22
2023-03-27T10:21:16.809Z,98637.41
2023-03-27T10:23:59.147Z,98639.81
2023-03-27T10:26:46.894Z,98660.09
2023-03-27T10:29:43.219Z,98668.94
2023-03-27T10:32:14.910Z,98671.28
2023-03-27T10:35:23.631Z,98675.47
2023-03-27T10:38:15.030Z,98690.81
2023-03-27T10:40:51.758Z,98703.38
2023-03-27T10:43:36.870Z,98703.56
2023-03-27T10:46:10.622Z,98710.44
2023-03-27T10:48:56.307Z,98724.47
2023-03-27T10:51:47.041Z,98716.94
2023-03-27T10:54:34.904Z,98760.22
2023-03-27T10:57:15.639Z,98744.19
2023-03-27T10:59:54.014Z,98783.50
2023-03-27T11:03:00.603Z,98791.06
2023-03-27T11:05:54.576Z,98779.41
2023-03-27T11:09:10.052Z,98804.00
2023-03-27T11:11:53.698Z,98823.03
2023-03-27T11:14:46.805Z,98805.56
2023-03-27T11:17:28.931Z,98817.03
2023-03-27T11:20:26.447Z,98821.81
2023-03-27T11:23:22.732Z,98824.22
2023-03-27T11:26:37.949Z,98808.72
2023-03-27T11:29:23.082Z,98810.09
2023-03-27T11:31:57.332Z,98805.72
2023-03-27T11:34:54.041Z,98810.31
2023-03-27T11:37:49.908Z,98843.25
2023-03-27T11:40:38.108Z,98855.53
2023-03-27T11:43:05.446Z,98852.75
2023-03-27T11:45:46.587Z,98870.66
2023-03-27T11:48:30.536Z,98892.03
2023-03-27T11:51:08.878Z,98887.66
2023-03-27T11:53:59.496Z,98896.28
2023-03-27T11:56:45.577Z,98913.47
2023-03-27T11:59:53.693Z,98914.09
2023-03-27T12:02:31.018Z,98925.91
2023-03-27T12:05:25.810Z,98942.34
2023-03-27T12:08:28.391Z,98965.28
2023-03-27T12:11:01.022Z,98964.03
2023-03-27T12:14:01.632Z,98987.78
2023-03-27T12:17:01.187Z,98980.19
2023-03-27T12:20:16.565Z,99002.25
2023-03-27T12:23:04.149Z,99017.78
2023-03-27T12:25:55.749Z,99016.50
2023-03-27T12:29:02.506Z,99019.44
2023-03-27T12:31:59.644Z,99029.22
2023-03-27T12:34:34.223Z,99028.94
2023-03-27T12:37:04.370Z,99031.28
2023-03-27T12:39:31.434Z,99025.16
2023-03-27T12:42:15.102Z,99063.69
2023-03-27T12:45:15.377Z,99065.88
2023-03-27T12:48:05.592Z,99086.41
2023-03-27T12:50:47.258Z,99102.03
2023-03-27T12:53:26.875Z,99099.34
2023-03-27T12:56:16.637Z,99118.25
2023-03-27T12:58:51.566Z,99133.66
2023-03-27T13:01:53.224Z,99127.66
2023-03-27T13:04:36.665Z,99133.41
2023-03-27T13:07:15.841Z,99142.13
2023-03-27T13:10:22.196Z,99148.63
2023-03-27T13:13:27.889Z,99137.22
2023-03-27T13:16:01.976Z,99147.16
2023-03-27T13:18:53.950Z,99177.13
2023-03-27T13:21:58.612Z,99147.06
2023-03-27T13:24:58.569Z,99184.50
2023-03-27T13:27:46.599Z,99201.19
2023-03-27T13:30:50.726Z,99190.22
2023-03-27T13:33:39.248Z,99213.88
2023-03-27T13:36:27.085Z,99205.38
2023-03-27T13:38:57.586Z,99201.81
2023-03-27T13:41:46.318Z,99231.06
2023-03-27T13:44:25.334Z,99226.16
2023-03-27T13:47:31.727Z,99238.19
2023-03-27T13:50:24.884Z,99243.75
2023-03-27T13:52:56.202Z,99259.28
2023-03-27T13:56:20.292Z,99263.75
2023-03-27T13:59:42.173Z,99260.63
2023-03-27T14:02:45.651Z,99263.16
2023-03-27T14:05:16.281Z,99263.50
2023-03-27T14:08:15.716Z,99274.50
2023-03-27T14:11:24.020Z,99257.97
2023-03-27T14:14:04.865Z,99272.13
2023-03-27T14:17:01.655Z,99282.03
2023-03-27T14:19:45.904Z,99281.28
2023-03-27T14:22:45.488Z,99279.06
2023-03-27T14:25:18.062Z,99284.41
2023-03-27T14:27:55.431Z,99280.66
2023-03-27T14:30:27.239Z,99281.06
2023-03-27T14:33:24.045Z,99289.28
2023-03-27T14:36:03.869Z,99291.91
2023-03-27T14:38:34.622Z,99291.53
2023-03-27T14:41:17.907Z,99299.75
2023-03-27T14:43:54.010Z,99304.31
2023-03-27T14:46:24.181Z,99312.75
2023-03-27T14:48:59.300Z,99306.31
2023-03-27T14:51:37.382Z,99330.31
2023-03-27T14:54:15.163Z,99318.50
2023-03-27T14:56:51.583Z,99345.50
2023-03-27T14:59:37.072Z,99328.97
2023-03-27T15:02:21.885Z,99342.75
2023-03-27T15:04:56.697Z,99341.97
2023-03-27T15:07:33.322Z,99345.91
2023-03-27T15:10:15.114Z,99347.50
2023-03-27T15:13:05.000Z,99361.47
2023-03-27T15:15:42.638Z,99361.59
2023-03-27T15:18:19.200Z,99370.41
2023-03-27T15:20:47.971Z,99386.25
2023-03-27T15:23:21.793Z,99383.44
2023-03-27T15:26:13.735Z,99396.94
2023-03-27T15:29:04.214Z,99390.84
2023-03-27T15:31:34.099Z,99403.66
2023-03-27T15:34:23.388Z,99409.22
2023-03-27T15:36:58.236Z,99416.88
2023-03-27T15:39:26.663Z,99421.19
2023-03-27T15:41:56.423Z,99424.13
2023-03-27T15:44:26.377Z,99421.38
2023-03-27T15:46:58.052Z,99431.00
2023-03-27T15:49:37.223Z,99423.53
2023-03-27T15:52:33.775Z,99423.09
2023-03-27T15:55:01.441Z,99433.25
2023-03-27T15:57:31.909Z,99438.75
2023-03-27T16:00:08.672Z,99434.81
2023-03-27T16:02:39.933Z,99435.41
2023-03-27T16:05:07.324Z,99442.06
2023-03-27T16:07:47.342Z,99457.66
2023-03-27T16:10:28.846Z,99462.50
2023-03-27T16:13:03.100Z,99454.13
2023-03-27T16:15:37.110Z,99494.84
2023-03-27T16:18:13.990Z,99473.44
2023-03-27T16:20:44.925Z,99481.16
2023-03-27T16:23:11.769Z,99476.56
2023-03-27T16:25:39.151Z,99479.22
2023-03-27T16:28:09.534Z,99487.63
2023-03-27T16:30:41.991Z,99488.00
2023-03-27T16:33:17.165Z,99491.88
2023-03-27T16:35:45.456Z,99499.16
2023-03-27T16:38:13.662Z,99500.72
2023-03-27T16:40:41.304Z,99505.53
2023-03-27T16:43:08.118Z,99504.00
2023-03-27T16:45:36.858Z,99502.59
2023-03-27T16:48:04.567Z,99514.75
2023-03-27T16:50:31.697Z,99521.72
2023-03-27T16:52:58.929Z,99524.13
2023-03-27T16:55:25.898Z,99531.22
2023-03-27T16:57:54.182Z,99526.75
2023-03-27T17:00:21.348Z,99539.00
2023-03-27T17:02:48.535Z,99545.72
2023-03-27T17:05:15.887Z,99554.06
2023-03-27T17:07:44.047Z,99550.78
2023-03-27T17:10:10.914Z,99551.47
2023-03-27T17:12:37.883Z,99559.44
2023-03-27T17:15:04.973Z,99562.25
2023-03-27T17:17:32.060Z,99567.91
2023-03-27T17:20:00.847Z,99569.34
2023-03-27T17:22:30.150Z,99581.63
2023-03-27T17:24:57.974Z,99582.31
2023-03-27T17:27:26.679Z,99597.88
2023-03-27T17:29:56.260Z,99611.44
2023-03-27T17:32:25.568Z,99621.28
2023-03-27T17:34:52.608Z,99611.66
2023-03-27T17:37:21.075Z,99586.50
2023-03-27T17:39:48.333Z,99619.94
2023-03-27T17:42:15.569Z,99618.16
2023-03-27T17:44:45.628Z,99620.97
2023-03-27T17:47:14.799Z,99646.50
2023-03-27T17:49:43.319Z,99656.44
2023-03-27T17:52:12.537Z,99638.81
2023-03-27T17:54:40.408Z,99661.13
2023-03-27T17:57:07.453Z,99670.31
2023-03-27T17:59:34.291Z,99669.00
2023-03-27T18:02:01.383Z,99681.84
2023-03-27T18:04:29.101Z,99678.69
2023-03-27T18:06:55.940Z,99690.72
2023-03-27T18:09:23.054Z,99692.00
2023-03-27T18:11:49.923Z,99695.69
2023-03-27T18:14:16.912Z,99706.91
2023-03-27T18:16:44.017Z,99696.81
2023-03-27T18:19:12.024Z,99711.41
2023-03-27T18:21:38.864Z,99708.06
2023-03-27T18:24:07.375Z,99705.66
2023-03-27T18:26:34.220Z,99715.28
2023-03-27T18:29:01.238Z,99723.31
2023-03-27T18:31:28.409Z,99727.13
2023-03-27T18:33:55.228Z,99722.16
2023-03-27T18:36:22.218Z,99733.59
2023-03-27T18:38:50.148Z,99723.13
2023-03-27T18:41:17.154Z,99728.25
2023-03-27T18:43:44.055Z,99748.81
2023-03-27T18:46:16.586Z,99743.50
2023-03-27T18:48:44.605Z,99740.78
2023-03-27T18:51:11.466Z,99752.16
2023-03-27T18:53:38.333Z,99755.53
2023-03-27T18:56:06.501Z,99758.25
2023-03-27T18:58:34.178Z,99756.16
2023-03-27T19:01:01.604Z,99759.38
2023-03-27T19:03:35.000Z,99759.53
2023-03-27T19:06:03.808Z,99760.94
2023-03-27T19:08:30.747Z,99766.22
2023-03-27T19:10:58.000Z,99767.03
2023-03-27T19:13:43.681Z,99776.81
2023-03-27T19:16:16.698Z,99772.47
2023-03-27T19:18:52.450Z,99781.31
2023-03-27T19:21:38.404Z,99783.06
2023-03-27T19:24:09.074Z,99766.22
2023-03-27T19:26:43.496Z,99781.94
2023-03-27T19:29:10.824Z,99784.19
2023-03-27T19:31:41.350Z,99785.63
2023-03-27T19:34:08.140Z,99780.00
2023-03-27T19:36:35.015Z,99790.28
2023-03-27T19:39:02.053Z,99801.03
2023-03-27T19:41:29.382Z,99783.38
2023-03-27T19:43:57.754Z,99791.91
2023-03-27T19:46:26.838Z,99788.03
2023-03-27T19:48:56.716Z,99789.63
2023-03-27T19:51:46.751Z,99798.16
2023-03-27T19:54:14.025Z,99799.09
2023-03-27T19:56:41.508Z,99803.56
2023-03-27T19:59:13.035Z,99796.84
2023-03-27T20:01:44.878Z,99799.91
2023-03-27T20:04:12.057Z,99798.91
2023-03-27T20:06:38.909Z,99802.72
2023-03-27T20:09:06.418Z,99815.91
2023-03-27T20:11:33.677Z,99808.81
2023-03-27T20:14:00.563Z,99817.16
2023-03-27T20:16:28.348Z,99812.03
2023-03-27T20:19:03.640Z,99803.03
2023-03-27T20:21:39.512Z,99813.44
2023-03-27T20:24:12.261Z,99804.63
2023-03-27T20:26:48.494Z,99811.81
2023-03-27T20:29:22.874Z,99812.13
2023-03-27T20:31:49.826Z,99805.88
2023-03-27T20:34:19.424Z,99816.94
2023-03-27T20:36:47.189Z,99825.09
2023-03-27T20:39:44.691Z,99819.44
2023-03-27T20:42:16.769Z,99820.41
2023-03-27T20:44:54.903Z,99817.34
2023-03-27T20:47:22.251Z,99810.09
2023-03-27T20:49:49.082Z,99818.59
2023-03-27T20:52:18.111Z,99819.28
2023-03-27T20:54:44.933Z,99812.81
2023-03-27T20:57:15.619Z,99811.22
2023-03-27T20:59:42.440Z,99814.88
2023-03-27T21:02:19.090Z,99814.38
2023-03-27T21:04:46.791Z,99820.59
2023-03-27T21:07:15.856Z,99832.31
2023-03-27T21:09:45.189Z,99819.38
2023-03-27T21:12:12.066Z,99827.44
2023-03-27T21:14:38.860Z,99831.91
2023-03-27T21:17:05.617Z,99835.13
2023-03-27T21:19:32.314Z,99833.84
2023-03-27T21:21:59.034Z,99841.91
2023-03-27T21:24:26.268Z,99841.53
2023-03-27T21:26:53.083Z,99853.22
2023-03-27T21:29:21.008Z,99846.94
2023-03-27T21:31:47.867Z,99858.16
2023-03-27T21:34:14.647Z,99843.34
2023-03-27T21:36:41.586Z,99872.75
2023-03-27T21:39:10.232Z,99863.72
2023-03-27T21:41:37.199Z,99860.03
2023-03-27T21:44:04.189Z,99863.84
2023-03-27T21:46:31.191Z,99868.03
2023-03-27T21:48:58.049Z,99857.13
2023-03-27T21:51:24.837Z,99870.59
2023-03-27T21:53:53.252Z,99869.78
2023-03-27T21:56:20.198Z,99876.81
2023-03-27T21:58:46.932Z,99871.03
2023-03-27T22:01:13.699Z,99863.94
2023-03-27T22:03:40.718Z,99867.97
2023-03-27T22:06:12.559Z,99874.06
2023-03-27T22:08:41.422Z,99868.56
2023-03-27T22:11:08.596Z,99877.06
2023-03-27T22:13:36.567Z,99874.34
2023-03-27T22:16:12.081Z,99878.53
2023-03-27T22:18:39.329Z,99875.97
2023-03-27T22:21:22.229Z,99880.34
2023-03-27T22:23:51.065Z,99877.78
2023-03-27T22:26:19.746Z,99867.44
2023-03-27T22:28:47.012Z,99882.00
2023-03-27T22:31:13.826Z,99880.25
2023-03-27T22:33:40.843Z,99880.63
2023-03-27T22:36:11.186Z,99883.44
2023-03-27T22:38:38.318Z,99893.00
2023-03-27T22:41:06.956Z,99904.06
2023-03-27T22:43:34.426Z,99905.38
2023-03-27T22:46:18.938Z,99903.41
2023-03-27T22:48:45.775Z,99896.22
2023-03-27T22:51:13.883Z,99905.56
2023-03-27T22:53:41.671Z,99917.28
2023-03-27T22:56:09.021Z,99916.47
2023-03-27T22:58:36.064Z,99913.50
2023-03-27T23:01:05.449Z,99924.06
2023-03-27T23:03:32.797Z,99918.41
2023-03-27T23:05:59.881Z,99920.03
2023-03-27T23:08:28.472Z,99928.38
2023-03-27T23:11:06.276Z,99923.41
2023-03-27T23:13:34.626Z,99926.25
2023-03-27T23:16:01.713Z,99923.53
2023-03-27T23:18:28.841Z,99926.41
2023-03-27T23:21:02.104Z,99926.31
2023-03-27T23:23:30.493Z,99920.66
2023-03-27T23:25:57.926Z,99924.19
2023-03-27T23:28:25.633Z,99926.03
2023-03-27T23:31:22.307Z,99932.84
2023-03-27T23:33:50.735Z,99929.03
2023-03-27T23:36:21.464Z,99928.75
2023-03-27T23:38:49.673Z,99941.41
2023-03-27T23:41:17.337Z,99939.00
2023-03-27T23:43:44.272Z,99943.06
2023-03-27T23:46:11.341Z,99939.81
2023-03-27T23:48:40.140Z,99947.66
2023-03-27T23:51:07.732Z,99949.16
2023-03-27T23:53:35.307Z,99946.00
2023-03-27T23:56:02.441Z,99950.84
2023-03-27T23:58:32.656Z,99956.66
